createdAt,value
2018-12-24T00:01:11.295Z,101259.30
2018-12-24T00:03:41.141Z,101270.03
2018-12-24T00:06:11.300Z,101272.00
2018-12-24T00:08:41.486Z,101277.45
2018-12-24T00:11:11.418Z,101283.37
2018-12-24T00:13:41.197Z,101282.61
2018-12-24T00:16:11.052Z,101294.92
2018-12-24T00:18:40.887Z,101295.39
2018-12-24T00:21:10.665Z,101302.43
2018-12-24T00:23:40.454Z,101310.97
2018-12-24T00:26:10.235Z,101319.73
2018-12-24T00:28:40.077Z,101319.91
2018-12-24T00:31:10.145Z,101321.70
2018-12-24T00:33:40.852Z,101320.09
2018-12-24T00:36:10.636Z,101334.57
2018-12-24T00:38:40.492Z,101343.94
2018-12-24T00:41:10.680Z,101353.72
2018-12-24T00:43:40.632Z,101345.17
2018-12-24T00:46:10.736Z,101360.75
2018-12-24T00:48:40.504Z,101374.19
2018-12-24T00:51:10.573Z,101376.53
2018-12-24T00:53:40.706Z,101380.49
2018-12-24T00:56:10.483Z,101379.34
2018-12-24T00:58:40.262Z,101389.09
2018-12-24T01:01:10.042Z,101399.82
2018-12-24T01:03:39.908Z,101408.35
2018-12-24T01:06:09.874Z,101403.47
2018-12-24T01:08:39.797Z,101422.43
2018-12-24T01:11:10.018Z,101422.61
2018-12-24T01:13:39.871Z,101432.50
2018-12-24T01:16:10.975Z,101445.00
2018-12-24T01:18:40.874Z,101476.24
2018-12-24T01:21:10.634Z,101474.97
2018-12-24T01:23:40.477Z,101486.78
2018-12-24T01:26:10.316Z,101496.15
2018-12-24T01:28:40.103Z,101496.70
2018-12-24T01:31:10.000Z,101506.36
2018-12-24T01:33:39.894Z,101510.38
2018-12-24T01:36:09.676Z,101516.11
2018-12-24T01:38:39.867Z,101525.98
2018-12-24T01:41:09.795Z,101531.70
2018-12-24T01:43:39.798Z,101538.66
2018-12-24T01:46:09.702Z,101543.52
2018-12-24T01:48:39.553Z,101551.19
2018-12-24T01:51:09.488Z,101559.34
2018-12-24T01:53:39.250Z,101563.28
2018-12-24T01:56:09.028Z,101574.26
2018-12-24T01:58:38.933Z,101572.64
2018-12-24T02:01:08.854Z,101579.21
2018-12-24T02:03:38.723Z,101585.86
2018-12-24T02:06:08.574Z,101586.86
2018-12-24T02:08:38.330Z,101593.59
2018-12-24T02:11:08.184Z,101597.61
2018-12-24T02:13:38.069Z,101599.39
2018-12-24T02:16:08.177Z,101608.97
2018-12-24T02:18:38.064Z,101610.86
2018-12-24T02:21:07.989Z,101612.71
2018-12-24T02:23:37.809Z,101624.30
2018-12-24T02:26:07.582Z,101623.06
2018-12-24T02:28:37.764Z,101627.47
2018-12-24T02:31:07.715Z,101632.69
2018-12-24T02:33:38.530Z,101629.28
2018-12-24T02:36:08.379Z,101642.41
2018-12-24T02:38:38.282Z,101640.25
2018-12-24T02:41:08.213Z,101646.16
2018-12-24T02:43:38.338Z,101648.25
2018-12-24T02:46:08.176Z,101650.03
2018-12-24T02:48:38.020Z,101652.58
2018-12-24T02:51:07.939Z,101659.52
2018-12-24T02:53:37.876Z,101662.61
2018-12-24T02:56:08.065Z,101667.55
2018-12-24T02:58:38.933Z,101670.27
2018-12-24T03:01:08.769Z,101674.59
2018-12-24T03:03:38.705Z,101688.41
2018-12-24T03:06:09.024Z,101692.73
2018-12-24T03:08:38.880Z,101696.21
2018-12-24T03:11:08.762Z,101706.33
2018-12-24T03:13:38.604Z,101706.25
2018-12-24T03:16:08.432Z,101712.74
2018-12-24T03:18:38.438Z,101713.67
2018-12-24T03:21:08.385Z,101720.62
2018-12-24T03:23:38.301Z,101729.89
2018-12-24T03:26:08.182Z,101734.21
2018-12-24T03:28:38.063Z,101735.67
2018-12-24T03:31:07.862Z,101739.30
2018-12-24T03:33:37.866Z,101735.75
2018-12-24T03:36:07.737Z,101738.45
2018-12-24T03:38:37.735Z,101744.27
2018-12-24T03:41:07.683Z,101745.20
2018-12-24T03:43:37.887Z,101750.45
2018-12-24T03:46:07.752Z,101760.03
2018-12-24T03:48:37.880Z,101759.07
2018-12-24T03:51:07.740Z,101761.34
2018-12-24T03:53:37.512Z,101773.52
2018-12-24T03:56:07.744Z,101779.16
2018-12-24T03:58:37.684Z,101782.24
2018-12-24T04:01:07.600Z,101784.41
2018-12-24T04:03:37.893Z,101782.63
2018-12-24T04:06:07.741Z,101777.38
2018-12-24T04:08:37.674Z,101787.81
2018-12-24T04:11:07.463Z,101794.77
2018-12-24T04:13:37.371Z,101805.80
2018-12-24T04:16:07.339Z,101817.55
2018-12-24T04:18:37.546Z,101815.77
2018-12-24T04:21:07.308Z,101821.48
2018-12-24T04:23:37.147Z,101825.73
2018-12-24T04:26:06.991Z,101828.90
2018-12-24T04:28:36.806Z,101834.22
2018-12-24T04:31:06.703Z,101832.98
2018-12-24T04:33:36.478Z,101839.63
2018-12-24T04:36:06.326Z,101841.43
2018-12-24T04:38:36.178Z,101848.45
2018-12-24T04:41:06.306Z,101850.69
2018-12-24T04:43:36.179Z,101856.02
2018-12-24T04:46:06.023Z,101854.24
2018-12-24T04:48:36.967Z,101855.48
2018-12-24T04:51:07.244Z,101865.98
2018-12-24T04:53:37.008Z,101876.48
2018-12-24T04:56:07.098Z,101880.42
2018-12-24T04:58:37.014Z,101883.80
2018-12-24T05:01:06.868Z,101886.42
2018-12-24T05:03:36.720Z,101898.80
2018-12-24T05:06:06.497Z,101903.49
2018-12-24T05:08:36.335Z,101908.84
2018-12-24T05:11:06.613Z,101916.87
2018-12-24T05:13:40.814Z,101921.34
2018-12-24T05:16:07.947Z,101935.25
2018-12-24T05:18:37.806Z,101940.50
2018-12-24T05:21:07.615Z,101955.40
2018-12-24T05:23:37.469Z,101958.42
2018-12-24T05:26:07.235Z,101970.62
2018-12-24T05:28:37.384Z,101975.24
2018-12-24T05:31:07.533Z,101991.10
2018-12-24T05:33:37.733Z,101996.35
2018-12-24T05:36:07.505Z,102002.42
2018-12-24T05:38:37.358Z,102004.59
2018-12-24T05:41:07.143Z,101999.34
2018-12-24T05:43:36.901Z,102007.61
2018-12-24T05:46:06.910Z,102007.54
2018-12-24T05:48:36.672Z,102018.05
2018-12-24T05:51:06.440Z,102024.54
2018-12-24T05:53:36.622Z,102031.11
2018-12-24T05:56:06.487Z,102035.58
2018-12-24T05:58:36.370Z,102039.52
2018-12-24T06:01:06.254Z,102046.47
2018-12-24T06:03:38.980Z,102054.73
2018-12-24T06:06:08.760Z,102066.42
2018-12-24T06:08:38.958Z,102067.34
2018-12-24T06:11:09.468Z,102078.70
2018-12-24T06:13:39.587Z,102086.45
2018-12-24T06:16:09.475Z,102087.69
2018-12-24T06:18:39.545Z,102100.69
2018-12-24T06:21:09.479Z,102101.61
2018-12-24T06:23:39.382Z,102113.43
2018-12-24T06:26:09.555Z,102117.90
2018-12-24T06:28:39.856Z,102124.86
2018-12-24T06:31:09.620Z,102124.69
2018-12-24T06:33:39.600Z,102143.01
2018-12-24T06:36:09.458Z,102151.91
2018-12-24T06:38:39.240Z,102154.60
2018-12-24T06:41:09.216Z,102156.83
2018-12-24T06:43:39.032Z,102169.24
2018-12-24T06:46:08.936Z,102175.48
2018-12-24T06:48:38.840Z,102172.98
2018-12-24T06:51:08.807Z,102178.56
2018-12-24T06:53:38.579Z,102186.37
2018-12-24T06:56:08.441Z,102183.69
2018-12-24T06:58:38.631Z,102189.01
2018-12-24T07:01:08.571Z,102189.86
2018-12-24T07:03:38.769Z,102188.55
2018-12-24T07:06:09.032Z,102194.98
2018-12-24T07:08:39.217Z,102200.96
2018-12-24T07:11:09.079Z,102202.73
2018-12-24T07:13:39.253Z,102208.68
2018-12-24T07:16:09.121Z,102216.50
2018-12-24T07:18:39.613Z,102207.70
2018-12-24T07:21:09.492Z,102216.89
2018-12-24T07:23:39.268Z,102216.95
2018-12-24T07:26:09.326Z,102220.83
2018-12-24T07:28:39.478Z,102225.95
2018-12-24T07:31:09.414Z,102232.00
2018-12-24T07:33:40.006Z,102241.59
2018-12-24T07:36:09.953Z,102248.55
2018-12-24T07:38:40.565Z,102245.34
2018-12-24T07:41:10.795Z,102250.09
2018-12-24T07:43:40.659Z,102247.86
2018-12-24T07:46:10.574Z,102257.45
2018-12-24T07:48:40.457Z,102265.95
2018-12-24T07:51:11.067Z,102262.61
2018-12-24T07:53:41.568Z,102271.34
2018-12-24T07:56:11.418Z,102266.02
2018-12-24T07:58:41.522Z,102270.48
2018-12-24T08:01:11.676Z,102278.37
2018-12-24T08:03:41.621Z,102280.14
2018-12-24T08:06:11.370Z,102284.08
2018-12-24T08:08:41.148Z,102281.06
2018-12-24T08:11:11.416Z,102288.94
2018-12-24T08:13:41.286Z,102288.48
2018-12-24T08:16:11.023Z,102284.94
2018-12-24T08:18:40.805Z,102297.67
2018-12-24T08:21:10.600Z,102305.03
2018-12-24T08:23:40.741Z,102304.91
2018-12-24T08:26:10.656Z,102310.00
2018-12-24T08:28:40.863Z,102315.66
2018-12-24T08:31:10.805Z,102326.95
2018-12-24T08:33:41.213Z,102330.25
2018-12-24T08:36:11.759Z,102340.08
2018-12-24T08:38:41.972Z,102341.27
2018-12-24T08:41:12.889Z,102346.86
2018-12-24T08:43:42.679Z,102352.97
2018-12-24T08:46:12.503Z,102359.94
2018-12-24T08:48:43.422Z,102375.58
2018-12-24T08:51:13.370Z,102375.58
2018-12-24T08:53:43.233Z,102384.78
2018-12-24T08:56:13.397Z,102393.92
2018-12-24T08:58:43.200Z,102403.52
2018-12-24T09:01:13.347Z,102412.09
2018-12-24T09:03:43.219Z,102415.12
2018-12-24T09:06:13.061Z,102424.27
2018-12-24T09:08:43.418Z,102425.97
2018-12-24T09:11:13.253Z,102431.17
2018-12-24T09:13:43.036Z,102434.73
2018-12-24T09:16:12.872Z,102443.95
2018-12-24T09:18:42.639Z,102447.36
2018-12-24T09:21:12.758Z,102457.06
2018-12-24T09:23:43.005Z,102458.58
2018-12-24T09:26:12.769Z,102475.42
2018-12-24T09:28:42.525Z,102480.06
2018-12-24T09:31:13.364Z,102492.17
2018-12-24T09:33:43.191Z,102495.59
2018-12-24T09:36:13.371Z,102495.92
2018-12-24T09:38:43.195Z,102503.07
2018-12-24T09:41:13.217Z,102502.55
2018-12-24T09:43:43.070Z,102511.27
2018-12-24T09:46:12.924Z,102523.90
2018-12-24T09:48:42.868Z,102538.05
2018-12-24T09:51:12.659Z,102538.31
2018-12-24T09:53:42.578Z,102551.02
2018-12-24T09:56:13.030Z,102550.62
2018-12-24T09:58:42.864Z,102550.98
2018-12-24T10:01:12.726Z,102557.95
2018-12-24T10:03:47.383Z,102548.48
2018-12-24T10:06:30.612Z,102557.42
2018-12-24T10:09:04.925Z,102559.30
2018-12-24T10:11:35.697Z,102557.58
2018-12-24T10:14:05.951Z,102564.56
2018-12-24T10:16:35.822Z,102562.16
2018-12-24T10:19:06.108Z,102567.90
2018-12-24T10:21:35.963Z,102570.38
2018-12-24T10:24:05.892Z,102578.59
2018-12-24T10:26:35.667Z,102574.66
2018-12-24T10:29:05.555Z,102584.47
2018-12-24T10:31:35.345Z,102590.95
2018-12-24T10:34:05.120Z,102592.80
2018-12-24T10:36:34.955Z,102596.98
2018-12-24T10:39:07.569Z,102596.72
2018-12-24T10:41:37.447Z,102598.30
2018-12-24T10:44:08.351Z,102596.15
2018-12-24T10:46:38.353Z,102594.23
2018-12-24T10:49:08.159Z,102593.25
2018-12-24T10:51:38.452Z,102595.49
2018-12-24T10:54:08.231Z,102587.13
2018-12-24T10:56:39.894Z,102592.33
2018-12-24T10:59:09.606Z,102591.27
2018-12-24T11:01:39.518Z,102589.81
2018-12-24T11:04:09.446Z,102589.36
2018-12-24T11:06:39.596Z,102588.76
2018-12-24T11:09:09.691Z,102589.45
2018-12-24T11:11:40.374Z,102589.11
2018-12-24T11:14:10.335Z,102583.30
2018-12-24T11:16:40.181Z,102588.71
2018-12-24T11:19:10.034Z,102587.27
2018-12-24T11:21:39.816Z,102591.30
2018-12-24T11:24:09.582Z,102590.83
2018-12-24T11:26:39.511Z,102588.45
2018-12-24T11:29:09.444Z,102592.92
2018-12-24T11:31:39.329Z,102590.55
2018-12-24T11:34:09.185Z,102593.34
2018-12-24T11:36:39.093Z,102595.70
2018-12-24T11:39:08.936Z,102597.55
2018-12-24T11:41:38.865Z,102602.65
2018-12-24T11:44:08.669Z,102600.02
2018-12-24T11:46:38.526Z,102615.41
2018-12-24T11:49:08.324Z,102623.58
2018-12-24T11:51:38.093Z,102625.75
2018-12-24T11:54:07.929Z,102621.19
2018-12-24T11:56:37.700Z,102619.41
2018-12-24T11:59:07.547Z,102619.16
2018-12-24T12:01:37.715Z,102619.94
2018-12-24T12:04:07.549Z,102626.61
2018-12-24T12:06:38.259Z,102626.14
2018-12-24T12:09:08.315Z,102627.25
2018-12-24T12:11:38.245Z,102620.09
2018-12-24T12:14:08.014Z,102627.89
2018-12-24T12:16:38.127Z,102625.97
2018-12-24T12:19:07.900Z,102629.35
2018-12-24T12:21:38.302Z,102630.52
2018-12-24T12:24:08.091Z,102631.13
2018-12-24T12:26:38.058Z,102633.42
2018-12-24T12:29:08.023Z,102636.63
2018-12-24T12:31:38.823Z,102647.97
2018-12-24T12:34:08.779Z,102648.58
2018-12-24T12:36:38.853Z,102651.70
2018-12-24T12:39:09.066Z,102643.30
2018-12-24T12:41:38.935Z,102642.52
2018-12-24T12:44:08.783Z,102647.26
2018-12-24T12:46:38.671Z,102644.63
2018-12-24T12:49:08.478Z,102645.83
2018-12-24T12:51:38.871Z,102651.14
2018-12-24T12:54:08.798Z,102657.52
2018-12-24T12:56:38.661Z,102656.45
2018-12-24T12:59:08.515Z,102664.45
2018-12-24T13:01:38.449Z,102665.59
2018-12-24T13:04:08.688Z,102676.09
2018-12-24T13:06:38.535Z,102681.55
2018-12-24T13:09:08.728Z,102682.79
2018-12-24T13:11:39.573Z,102691.31
2018-12-24T13:14:09.420Z,102687.42
2018-12-24T13:16:39.556Z,102696.08
2018-12-24T13:19:09.416Z,102700.47
2018-12-24T13:21:39.621Z,102702.43
2018-12-24T13:24:09.570Z,102701.04
2018-12-24T13:26:39.880Z,102708.85
2018-12-24T13:29:09.873Z,102702.86
2018-12-24T13:31:39.892Z,102712.16
2018-12-24T13:34:10.056Z,102711.00
2018-12-24T13:36:39.986Z,102709.08
2018-12-24T13:39:10.010Z,102717.30
2018-12-24T13:41:39.953Z,102716.47
2018-12-24T13:44:09.808Z,102722.14
2018-12-24T13:46:39.606Z,102718.77
2018-12-24T13:49:09.983Z,102723.70
2018-12-24T13:51:39.844Z,102729.63
2018-12-24T13:54:09.777Z,102733.98
2018-12-24T13:56:39.920Z,102730.56
2018-12-24T13:59:10.119Z,102737.55
2018-12-24T14:01:40.260Z,102745.92
2018-12-24T14:04:10.152Z,102750.28
2018-12-24T14:06:40.509Z,102751.14
2018-12-24T14:09:10.520Z,102758.27
2018-12-24T14:11:40.389Z,102764.44
2018-12-24T14:14:10.304Z,102770.37
2018-12-24T14:16:40.356Z,102773.73
2018-12-24T14:19:10.259Z,102769.88
2018-12-24T14:21:40.172Z,102777.82
2018-12-24T14:24:10.084Z,102785.50
2018-12-24T14:26:40.000Z,102790.31
2018-12-24T14:29:09.763Z,102793.51
2018-12-24T14:31:39.711Z,102797.45
2018-12-24T14:34:09.542Z,102795.42
2018-12-24T14:36:39.419Z,102799.97
2018-12-24T14:39:09.177Z,102807.48
2018-12-24T14:41:39.528Z,102806.69
2018-12-24T14:44:09.555Z,102808.83
2018-12-24T14:46:39.439Z,102817.97
2018-12-24T14:49:09.749Z,102827.57
2018-12-24T14:51:39.703Z,102838.33
2018-12-24T14:54:09.897Z,102843.89
2018-12-24T14:56:40.554Z,102839.39
2018-12-24T14:59:10.587Z,102851.86
2018-12-24T15:01:40.356Z,102859.95
2018-12-24T15:04:10.197Z,102859.27
2018-12-24T15:06:40.037Z,102866.58
2018-12-24T15:09:10.586Z,102870.77
2018-12-24T15:11:40.854Z,102872.36
2018-12-24T15:14:10.701Z,102876.20
2018-12-24T15:16:40.758Z,102884.34
2018-12-24T15:19:10.706Z,102884.19
2018-12-24T15:21:41.598Z,102882.53
2018-12-24T15:24:11.495Z,102882.69
2018-12-24T15:26:41.336Z,102885.00
2018-12-24T15:29:11.232Z,102889.95
2018-12-24T15:31:41.052Z,102885.66
2018-12-24T15:34:11.178Z,102884.34
2018-12-24T15:36:41.023Z,102887.87
2018-12-24T15:39:10.911Z,102893.23
2018-12-24T15:41:40.816Z,102899.13
2018-12-24T15:44:11.505Z,102899.83
2018-12-24T15:46:42.778Z,102895.41
2018-12-24T15:49:12.868Z,102897.00
2018-12-24T15:51:42.625Z,102900.36
2018-12-24T15:54:13.184Z,102903.70
2018-12-24T15:56:43.365Z,102903.89
2018-12-24T15:59:13.817Z,102896.60
2018-12-24T16:01:44.013Z,102898.99
2018-12-24T16:04:13.765Z,102880.84
2018-12-24T16:06:43.699Z,102885.36
2018-12-24T16:09:13.601Z,102892.23
2018-12-24T16:11:43.740Z,102895.15
2018-12-24T16:14:13.493Z,102890.57
2018-12-24T16:16:50.981Z,102898.28
2018-12-24T16:19:15.566Z,102893.28
2018-12-24T16:21:45.818Z,102897.87
2018-12-24T16:24:15.921Z,102904.64
2018-12-24T16:26:46.017Z,102898.73
2018-12-24T16:29:16.033Z,102903.72
2018-12-24T16:31:45.811Z,102906.47
2018-12-24T16:34:15.655Z,102903.47
2018-12-24T16:36:45.514Z,102905.67
2018-12-24T16:39:15.675Z,102899.73
2018-12-24T16:41:45.764Z,102903.03
2018-12-24T16:44:15.864Z,102905.39
2018-12-24T16:46:45.702Z,102916.36
2018-12-24T16:49:15.670Z,102915.95
2018-12-24T16:51:45.436Z,102915.54
2018-12-24T16:54:15.704Z,102922.99
2018-12-24T16:56:46.179Z,102928.34
2018-12-24T16:59:16.025Z,102933.66
2018-12-24T17:01:45.983Z,102928.91
2018-12-24T17:04:16.127Z,102937.66
2018-12-24T17:06:45.986Z,102936.91
2018-12-24T17:09:16.477Z,102940.02
2018-12-24T17:11:46.589Z,102925.70
2018-12-24T17:14:16.725Z,102916.20
2018-12-24T17:16:46.912Z,102923.23
2018-12-24T17:19:16.777Z,102924.84
2018-12-24T17:21:46.626Z,102923.39
2018-12-24T17:24:17.000Z,102931.19
2018-12-24T17:26:46.892Z,102942.90
2018-12-24T17:29:17.191Z,102937.17
2018-12-24T17:31:47.000Z,102939.80
2018-12-24T17:34:16.886Z,102947.73
2018-12-24T17:36:46.743Z,102956.45
2018-12-24T17:39:16.586Z,102955.25
2018-12-24T17:41:46.459Z,102963.70
2018-12-24T17:44:16.325Z,102960.66
2018-12-24T17:46:46.435Z,102961.56
2018-12-24T17:49:16.231Z,102953.42
2018-12-24T17:51:46.151Z,102952.84
2018-12-24T17:54:16.080Z,102958.73
2018-12-24T17:56:45.849Z,102965.34
2018-12-24T17:59:15.737Z,102967.52
2018-12-24T18:01:45.593Z,102976.23
2018-12-24T18:04:16.538Z,102976.67
2018-12-24T18:06:46.467Z,102980.25
2018-12-24T18:09:16.836Z,102975.56
2018-12-24T18:11:46.612Z,102988.66
2018-12-24T18:14:16.488Z,102992.77
2018-12-24T18:16:46.312Z,102998.61
2018-12-24T18:19:16.163Z,103005.30
2018-12-24T18:21:45.985Z,103005.84
2018-12-24T18:24:15.922Z,103004.20
2018-12-24T18:26:45.783Z,103006.08
2018-12-24T18:29:15.586Z,103013.57
2018-12-24T18:31:45.537Z,103028.44
2018-12-24T18:34:15.522Z,103037.73
2018-12-24T18:36:45.630Z,103039.79
2018-12-24T18:39:15.554Z,103034.86
2018-12-24T18:41:45.510Z,103044.77
2018-12-24T18:44:15.470Z,103063.86
2018-12-24T18:46:45.340Z,103068.12
2018-12-24T18:49:15.209Z,103064.58
2018-12-24T18:51:45.628Z,103065.95
2018-12-24T18:54:15.651Z,103073.08
2018-12-24T18:56:45.505Z,103086.30
2018-12-24T18:59:15.662Z,103094.99
2018-12-24T19:01:45.466Z,103085.75
2018-12-24T19:04:15.369Z,103090.11
2018-12-24T19:06:45.534Z,103099.39
2018-12-24T19:09:15.861Z,103115.93
2018-12-24T19:11:46.193Z,103115.93
2018-12-24T19:14:16.154Z,103100.28
2018-12-24T19:16:46.031Z,103100.36
2018-12-24T19:19:15.810Z,103099.66
2018-12-24T19:21:46.024Z,103098.45
2018-12-24T19:24:15.841Z,103101.07
2018-12-24T19:26:46.275Z,103110.09
2018-12-24T19:29:16.501Z,103106.95
2018-12-24T19:31:46.360Z,103116.89
2018-12-24T19:34:16.556Z,103119.02
2018-12-24T19:36:46.507Z,103121.13
2018-12-24T19:39:17.458Z,103118.04
2018-12-24T19:41:47.408Z,103121.07
2018-12-24T19:44:17.300Z,103119.77
2018-12-24T19:46:47.406Z,103108.88
2018-12-24T19:49:17.284Z,103113.36
2018-12-24T19:51:47.089Z,103111.80
2018-12-24T19:54:16.976Z,103119.64
2018-12-24T19:56:46.898Z,103119.73
2018-12-24T19:59:16.766Z,103122.34
2018-12-24T20:01:47.385Z,103120.64
2018-12-24T20:04:17.454Z,103122.44
2018-12-24T20:06:47.305Z,103125.95
2018-12-24T20:09:17.115Z,103121.13
2018-12-24T20:11:46.907Z,103115.45
2018-12-24T20:14:16.687Z,103119.02
2018-12-24T20:16:46.472Z,103120.48
2018-12-24T20:19:16.990Z,103125.80
2018-12-24T20:21:46.901Z,103126.27
2018-12-24T20:24:17.077Z,103130.63
2018-12-24T20:26:47.171Z,103135.50
2018-12-24T20:29:17.323Z,103130.39
2018-12-24T20:31:47.241Z,103134.40
2018-12-24T20:34:17.129Z,103134.48
2018-12-24T20:36:47.259Z,103135.41
2018-12-24T20:39:17.387Z,103133.30
2018-12-24T20:41:47.236Z,103139.39
2018-12-24T20:44:17.512Z,103136.38
2018-12-24T20:46:47.284Z,103134.70
2018-12-24T20:49:17.805Z,103142.43
2018-12-24T20:51:48.330Z,103150.14
2018-12-24T20:54:18.242Z,103157.45
2018-12-24T20:56:48.108Z,103167.39
2018-12-24T20:59:18.418Z,103165.03
2018-12-24T21:01:49.224Z,103165.33
2018-12-24T21:04:19.089Z,103158.17
2018-12-24T21:06:49.057Z,103149.73
2018-12-24T21:09:19.000Z,103157.48
2018-12-24T21:11:48.798Z,103144.77
2018-12-24T21:14:19.045Z,103147.75
2018-12-24T21:16:48.966Z,103151.67
2018-12-24T21:19:18.854Z,103148.22
2018-12-24T21:21:48.766Z,103152.89
2018-12-24T21:24:18.620Z,103148.03
2018-12-24T21:26:48.835Z,103149.34
2018-12-24T21:29:19.188Z,103138.50
2018-12-24T21:31:49.356Z,103138.92
2018-12-24T21:34:19.344Z,103139.76
2018-12-24T21:36:49.285Z,103145.78
2018-12-24T21:39:19.141Z,103150.52
2018-12-24T21:41:49.790Z,103139.70
2018-12-24T21:44:19.692Z,103140.12
2018-12-24T21:46:49.534Z,103137.90
2018-12-24T21:49:19.484Z,103143.46
2018-12-24T21:51:49.372Z,103138.63
2018-12-24T21:54:19.277Z,103133.33
2018-12-24T21:56:49.457Z,103127.63
2018-12-24T21:59:19.284Z,103130.27
2018-12-24T22:01:49.367Z,103145.97
2018-12-24T22:04:19.284Z,103145.92
2018-12-24T22:06:49.184Z,103144.53
2018-12-24T22:09:19.017Z,103148.39
2018-12-24T22:11:49.945Z,103153.60
2018-12-24T22:14:19.908Z,103151.82
2018-12-24T22:16:49.822Z,103148.28
2018-12-24T22:19:19.972Z,103150.91
2018-12-24T22:21:49.810Z,103142.16
2018-12-24T22:24:19.655Z,103144.33
2018-12-24T22:26:49.942Z,103146.50
2018-12-24T22:29:20.155Z,103142.52
2018-12-24T22:31:50.386Z,103146.83
2018-12-24T22:34:20.627Z,103152.00
2018-12-24T22:36:50.566Z,103155.48
2018-12-24T22:39:20.736Z,103154.63
2018-12-24T22:41:50.997Z,103152.39
2018-12-24T22:44:20.960Z,103149.33
2018-12-24T22:46:51.507Z,103154.12
2018-12-24T22:49:21.353Z,103151.44
2018-12-24T22:51:51.610Z,103154.52
2018-12-24T22:54:22.001Z,103150.14
2018-12-24T22:56:52.174Z,103154.88
2018-12-24T22:59:22.021Z,103144.36
2018-12-24T23:01:51.957Z,103143.50
2018-12-24T23:04:21.731Z,103141.30
2018-12-24T23:06:51.663Z,103147.88
2018-12-24T23:09:21.797Z,103151.36
2018-12-24T23:11:52.041Z,103147.84
2018-12-24T23:14:21.943Z,103150.79
2018-12-24T23:16:52.055Z,103151.69
2018-12-24T23:19:21.815Z,103146.86
2018-12-24T23:21:51.746Z,103146.38
2018-12-24T23:24:21.686Z,103136.32
2018-12-24T23:26:51.611Z,103140.22
2018-12-24T23:29:21.409Z,103140.67
2018-12-24T23:31:51.535Z,103140.64
2018-12-24T23:34:21.316Z,103142.39
2018-12-24T23:36:51.151Z,103143.23
2018-12-24T23:39:21.988Z,103145.84
2018-12-24T23:41:52.238Z,103142.81
2018-12-24T23:44:22.023Z,103145.02
2018-12-24T23:46:52.209Z,103151.53
2018-12-24T23:49:22.081Z,103156.74
2018-12-24T23:51:51.940Z,103151.98
2018-12-24T23:54:23.348Z,103141.47
2018-12-24T23:56:53.116Z,103140.12
2018-12-24T23:59:22.884Z,103142.27
